Ocean Scout — WDG2354 — position and weather

sailwx.info

Track history (hours):
 
Tides and Currents Weather Stations Pressure Air Temp Water Temp Dewpoint Dewpoint Depression Visibility Wind Speed Wind Dir Waves Ship Positions

Ocean Scout

Owner: Clean Seas, LLC, Carpinteria, CA. More information available from US FCC via Universal Licensing System and Coast Guard Vessel Documentation Center.

Last reported at 2014-Sep-28 15:33 UTC. Time now 2014-Oct-02 08:40 UTC.
Position N 34°17' W 119°26'.

Length 20 m; draft 2 m.

Type: Pollution control. MMSI: 367514780.

Date/timePositionNaut miles runAvg speedWind from/ knotsBaromVisibWave heightAir tempDewpointWater temp
2014-Sep-28 15:33N 34°17' W 119°26'1312.8
2014-Sep-28 14:33N 34°21' W 119°41'3 3.2
2014-Sep-28 13:33N 34°24' W 119°42'0 0.0
2014-Sep-28 12:33N 34°24' W 119°42'0 0.0
2014-Sep-28 11:24N 34°24' W 119°42'0 0.0
2014-Sep-28 10:33N 34°24' W 119°42'0 0.0
2014-Sep-28 09:30N 34°24' W 119°42'0 0.0
2014-Sep-28 08:30N 34°24' W 119°42'0 0.0
2014-Sep-28 07:30N 34°24' W 119°42'0 0.0
2014-Sep-28 06:12N 34°24' W 119°42'0 0.0
2014-Sep-28 02:30N 34°24' W 119°42'0 0.0
2014-Sep-28 01:30N 34°24' W 119°42'0 0.0
2014-Sep-28 00:31N 34°24' W 119°42'0 0.0
2014-Sep-27 23:30N 34°24' W 119°42'0 0.0
2014-Sep-27 22:30N 34°24' W 119°42'0 0.0
2014-Sep-27 21:24N 34°24' W 119°42'0 0.0
2014-Sep-27 20:24N 34°24' W 119°42'0 0.0
2014-Sep-27 19:21N 34°24' W 119°42'0 0.0
2014-Sep-27 18:30N 34°24' W 119°42'0 0.0
2014-Sep-27 17:28N 34°24' W 119°42'0 0.0
2014-Sep-27 16:33N 34°24' W 119°42'8 8.4
2014-Sep-27 15:33N 34°23' W 119°51'1514.8
2014-Sep-27 14:33N 34°24' W 120°09'  
2014-Sep-24 00:12N 34°27' W 120°26'14 3.8
2014-Sep-23 20:26N 34°24' W 120°09'1314.9
2014-Sep-23 19:33N 34°23' W 119°54'12 5.8
2014-Sep-23 17:34N 34°23' W 119°40'7 5.6
2014-Sep-23 16:23N 34°20' W 119°32'1822.1
2014-Sep-23 15:33N 34°22' W 119°54'19 1.0
2014-Sep-22 21:22N 34°25' W 120°17'1316.3
2014-Sep-22 20:34N 34°24' W 120°01'1616.1
2014-Sep-22 19:33N 34°23' W 119°42'1 1.4
2014-Sep-22 18:33N 34°24' W 119°42'0 0.0
2014-Sep-22 16:33N 34°24' W 119°42'0 0.0
2014-Sep-22 15:30N 34°24' W 119°42'0 0.0
2014-Sep-22 14:18N 34°24' W 119°42'0 0.0
2014-Sep-22 13:33N 34°24' W 119°42'0 0.0
2014-Sep-22 12:30N 34°24' W 119°42'0 0.0
2014-Sep-22 11:30N 34°24' W 119°42'0 0.0
2014-Sep-22 10:33N 34°24' W 119°42'0 0.0
2014-Sep-22 09:33N 34°24' W 119°42'0 0.0
2014-Sep-22 08:30N 34°24' W 119°42'0 0.0
2014-Sep-22 07:33N 34°24' W 119°42'0 0.0
2014-Sep-22 02:33N 34°24' W 119°42'0 0.0
2014-Sep-22 01:30N 34°24' W 119°42'0 0.0
2014-Sep-22 00:30N 34°24' W 119°42'0 0.0
2014-Sep-21 23:33N 34°24' W 119°42'0 0.0
2014-Sep-21 22:30N 34°24' W 119°42'0 0.0
2014-Sep-21 21:33N 34°24' W 119°42'0 0.0
2014-Sep-21 20:30N 34°24' W 119°42'0 0.0
2014-Sep-21 19:27N 34°24' W 119°42'0 0.0
2014-Sep-21 18:33N 34°24' W 119°42'0 0.0
2014-Sep-21 16:21N 34°24' W 119°42'0 0.0
2014-Sep-21 15:33N 34°24' W 119°42'0 0.0
2014-Sep-21 14:33N 34°24' W 119°42'0 0.0
2014-Sep-21 13:33N 34°24' W 119°42'0 0.0
2014-Sep-21 12:33N 34°24' W 119°42'0 0.0
2014-Sep-21 11:33N 34°24' W 119°42'0 0.0
2014-Sep-21 10:33N 34°24' W 119°42'0 0.0
2014-Sep-21 09:33N 34°24' W 119°42'0 0.0
2014-Sep-21 08:30N 34°24' W 119°42'0 0.0
2014-Sep-21 07:33N 34°24' W 119°42'0 0.0
2014-Sep-21 06:27N 34°24' W 119°42'0 0.0
2014-Sep-21 02:18N 34°24' W 119°42'0 0.0
2014-Sep-21 01:33N 34°24' W 119°42'0 0.0
2014-Sep-21 00:30N 34°24' W 119°42'0 0.0
2014-Sep-20 23:33N 34°24' W 119°42'0 0.0
2014-Sep-20 22:29N 34°24' W 119°42'0 0.0
2014-Sep-20 21:32N 34°24' W 119°42'0 0.0
2014-Sep-20 20:18N 34°24' W 119°42'0 0.0
2014-Sep-20 19:32N 34°24' W 119°42'6 6.5
2014-Sep-20 18:34N 34°23' W 119°34'4 2.0
2014-Sep-20 16:33N 34°24' W 119°39'2 2.3
2014-Sep-20 15:32N 34°24' W 119°42'0 0.0
2014-Sep-20 14:32N 34°24' W 119°42'0 0.0
2014-Sep-20 13:32N 34°24' W 119°42'0 0.0
2014-Sep-20 12:32N 34°24' W 119°42'0 0.0
2014-Sep-20 11:32N 34°24' W 119°42'0 0.0
2014-Sep-20 10:32N 34°24' W 119°42'0 0.0
2014-Sep-20 09:29N 34°24' W 119°42'0 0.0
2014-Sep-20 08:32N 34°24' W 119°42'0 0.0
2014-Sep-20 07:29N 34°24' W 119°42'0 0.0
2014-Sep-20 03:29N 34°24' W 119°42'0 0.0
2014-Sep-20 02:32N 34°24' W 119°42'0 0.0
2014-Sep-20 01:32N 34°24' W 119°42'0 0.0
2014-Sep-20 00:32N 34°24' W 119°42'0 0.0
2014-Sep-19 23:32N 34°24' W 119°42'0 0.0
2014-Sep-19 22:32N 34°24' W 119°42'0 0.0
2014-Sep-19 21:32N 34°24' W 119°42'0 0.0
2014-Sep-19 20:29N 34°24' W 119°42'0 0.0
2014-Sep-19 19:31N 34°24' W 119°42'3 3.1
2014-Sep-19 18:33N 34°24' W 119°38'1 1.3
2014-Sep-19 17:33N 34°24' W 119°39'0 0.3
2014-Sep-19 16:31N 34°24' W 119°40'2 1.1
2014-Sep-19 15:07N 34°24' W 119°42'0 0.0
2014-Sep-19 14:16N 34°24' W 119°42'0 0.0
2014-Sep-19 13:32N 34°24' W 119°42'0 0.0
2014-Sep-19 12:31N 34°24' W 119°42'0 0.0
2014-Sep-19 11:31N 34°24' W 119°42'0 0.0
2014-Sep-19 10:28N 34°24' W 119°42'0 0.0
2014-Sep-19 09:25N 34°24' W 119°42'0 0.0
2014-Sep-19 08:28N 34°24' W 119°42'0 0.0
2014-Sep-19 07:31N 34°24' W 119°42'0 0.0
2014-Sep-19 03:28N 34°24' W 119°42'0 0.0
2014-Sep-19 02:31N 34°24' W 119°42'0 0.0
2014-Sep-19 01:28N 34°24' W 119°42'0 0.0
2014-Sep-19 00:31N 34°24' W 119°42'0 0.0
2014-Sep-18 23:28N 34°24' W 119°42'0 0.0
2014-Sep-18 22:31N 34°24' W 119°42'0 0.0
2014-Sep-18 21:31N 34°24' W 119°42'0 0.0
2014-Sep-18 20:31N 34°24' W 119°42'0 0.0
2014-Sep-18 19:28N 34°24' W 119°42'1 1.6
2014-Sep-18 18:34N 34°23' W 119°42'1918.5
2014-Sep-18 17:34N 34°24' W 120°04'  
Track history (hours):
 
Tides and Currents Weather Stations Pressure Air Temp Water Temp Dewpoint Dewpoint Depression Visibility Wind Speed Wind Dir Waves Ship Positions

Ocean Scout

Owner: Clean Seas, LLC, Carpinteria, CA. More information available from US FCC via Universal Licensing System and Coast Guard Vessel Documentation Center.

Last reported at 2014-Sep-28 15:33 UTC. Time now 2014-Oct-02 08:40 UTC.
Position N 34°17' W 119°26'.

Length 20 m; draft 2 m.

Type: Pollution control. MMSI: 367514780.

Date/timePositionNaut miles runAvg speedWind from/ knotsBaromVisibWave heightAir tempDewpointWater temp
2014-Sep-28 15:33N 34°17' W 119°26'1312.8
2014-Sep-28 14:33N 34°21' W 119°41'3 3.2
2014-Sep-28 13:33N 34°24' W 119°42'0 0.0
2014-Sep-28 12:33N 34°24' W 119°42'0 0.0
2014-Sep-28 11:24N 34°24' W 119°42'0 0.0
2014-Sep-28 10:33N 34°24' W 119°42'0 0.0
2014-Sep-28 09:30N 34°24' W 119°42'0 0.0
2014-Sep-28 08:30N 34°24' W 119°42'0 0.0
2014-Sep-28 07:30N 34°24' W 119°42'0 0.0
2014-Sep-28 06:12N 34°24' W 119°42'0 0.0
2014-Sep-28 02:30N 34°24' W 119°42'0 0.0
2014-Sep-28 01:30N 34°24' W 119°42'0 0.0
2014-Sep-28 00:31N 34°24' W 119°42'0 0.0
2014-Sep-27 23:30N 34°24' W 119°42'0 0.0
2014-Sep-27 22:30N 34°24' W 119°42'0 0.0
2014-Sep-27 21:24N 34°24' W 119°42'0 0.0
2014-Sep-27 20:24N 34°24' W 119°42'0 0.0
2014-Sep-27 19:21N 34°24' W 119°42'0 0.0
2014-Sep-27 18:30N 34°24' W 119°42'0 0.0
2014-Sep-27 17:28N 34°24' W 119°42'0 0.0
2014-Sep-27 16:33N 34°24' W 119°42'8 8.4
2014-Sep-27 15:33N 34°23' W 119°51'1514.8
2014-Sep-27 14:33N 34°24' W 120°09'  
2014-Sep-24 00:12N 34°27' W 120°26'14 3.8
2014-Sep-23 20:26N 34°24' W 120°09'1314.9
2014-Sep-23 19:33N 34°23' W 119°54'12 5.8
2014-Sep-23 17:34N 34°23' W 119°40'7 5.6
2014-Sep-23 16:23N 34°20' W 119°32'1822.1
2014-Sep-23 15:33N 34°22' W 119°54'19 1.0
2014-Sep-22 21:22N 34°25' W 120°17'1316.3
2014-Sep-22 20:34N 34°24' W 120°01'1616.1
2014-Sep-22 19:33N 34°23' W 119°42'1 1.4
2014-Sep-22 18:33N 34°24' W 119°42'0 0.0
2014-Sep-22 16:33N 34°24' W 119°42'0 0.0
2014-Sep-22 15:30N 34°24' W 119°42'0 0.0
2014-Sep-22 14:18N 34°24' W 119°42'0 0.0
2014-Sep-22 13:33N 34°24' W 119°42'0 0.0
2014-Sep-22 12:30N 34°24' W 119°42'0 0.0
2014-Sep-22 11:30N 34°24' W 119°42'0 0.0
2014-Sep-22 10:33N 34°24' W 119°42'0 0.0
2014-Sep-22 09:33N 34°24' W 119°42'0 0.0
2014-Sep-22 08:30N 34°24' W 119°42'0 0.0
2014-Sep-22 07:33N 34°24' W 119°42'0 0.0
2014-Sep-22 02:33N 34°24' W 119°42'0 0.0
2014-Sep-22 01:30N 34°24' W 119°42'0 0.0
2014-Sep-22 00:30N 34°24' W 119°42'0 0.0
2014-Sep-21 23:33N 34°24' W 119°42'0 0.0
2014-Sep-21 22:30N 34°24' W 119°42'0 0.0
2014-Sep-21 21:33N 34°24' W 119°42'0 0.0
2014-Sep-21 20:30N 34°24' W 119°42'0 0.0
2014-Sep-21 19:27N 34°24' W 119°42'0 0.0
2014-Sep-21 18:33N 34°24' W 119°42'0 0.0
2014-Sep-21 16:21N 34°24' W 119°42'0 0.0
2014-Sep-21 15:33N 34°24' W 119°42'0 0.0
2014-Sep-21 14:33N 34°24' W 119°42'0 0.0
2014-Sep-21 13:33N 34°24' W 119°42'0 0.0
2014-Sep-21 12:33N 34°24' W 119°42'0 0.0
2014-Sep-21 11:33N 34°24' W 119°42'0 0.0
2014-Sep-21 10:33N 34°24' W 119°42'0 0.0
2014-Sep-21 09:33N 34°24' W 119°42'0 0.0
2014-Sep-21 08:30N 34°24' W 119°42'0 0.0
2014-Sep-21 07:33N 34°24' W 119°42'0 0.0
2014-Sep-21 06:27N 34°24' W 119°42'0 0.0
2014-Sep-21 02:18N 34°24' W 119°42'0 0.0
2014-Sep-21 01:33N 34°24' W 119°42'0 0.0
2014-Sep-21 00:30N 34°24' W 119°42'0 0.0
2014-Sep-20 23:33N 34°24' W 119°42'0 0.0
2014-Sep-20 22:29N 34°24' W 119°42'0 0.0
2014-Sep-20 21:32N 34°24' W 119°42'0 0.0
2014-Sep-20 20:18N 34°24' W 119°42'0 0.0
2014-Sep-20 19:32N 34°24' W 119°42'6 6.5
2014-Sep-20 18:34N 34°23' W 119°34'4 2.0
2014-Sep-20 16:33N 34°24' W 119°39'2 2.3
2014-Sep-20 15:32N 34°24' W 119°42'0 0.0
2014-Sep-20 14:32N 34°24' W 119°42'0 0.0
2014-Sep-20 13:32N 34°24' W 119°42'0 0.0
2014-Sep-20 12:32N 34°24' W 119°42'0 0.0
2014-Sep-20 11:32N 34°24' W 119°42'0 0.0
2014-Sep-20 10:32N 34°24' W 119°42'0 0.0
2014-Sep-20 09:29N 34°24' W 119°42'0 0.0
2014-Sep-20 08:32N 34°24' W 119°42'0 0.0
2014-Sep-20 07:29N 34°24' W 119°42'0 0.0
2014-Sep-20 03:29N 34°24' W 119°42'0 0.0
2014-Sep-20 02:32N 34°24' W 119°42'0 0.0
2014-Sep-20 01:32N 34°24' W 119°42'0 0.0
2014-Sep-20 00:32N 34°24' W 119°42'0 0.0
2014-Sep-19 23:32N 34°24' W 119°42'0 0.0
2014-Sep-19 22:32N 34°24' W 119°42'0 0.0
2014-Sep-19 21:32N 34°24' W 119°42'0 0.0
2014-Sep-19 20:29N 34°24' W 119°42'0 0.0
2014-Sep-19 19:31N 34°24' W 119°42'3 3.1
2014-Sep-19 18:33N 34°24' W 119°38'1 1.3
2014-Sep-19 17:33N 34°24' W 119°39'0 0.3
2014-Sep-19 16:31N 34°24' W 119°40'2 1.1
2014-Sep-19 15:07N 34°24' W 119°42'0 0.0
2014-Sep-19 14:16N 34°24' W 119°42'0 0.0
2014-Sep-19 13:32N 34°24' W 119°42'0 0.0
2014-Sep-19 12:31N 34°24' W 119°42'0 0.0
2014-Sep-19 11:31N 34°24' W 119°42'0 0.0
2014-Sep-19 10:28N 34°24' W 119°42'0 0.0
2014-Sep-19 09:25N 34°24' W 119°42'0 0.0
2014-Sep-19 08:28N 34°24' W 119°42'0 0.0
2014-Sep-19 07:31N 34°24' W 119°42'0 0.0
2014-Sep-19 03:28N 34°24' W 119°42'0 0.0
2014-Sep-19 02:31N 34°24' W 119°42'0 0.0
2014-Sep-19 01:28N 34°24' W 119°42'0 0.0
2014-Sep-19 00:31N 34°24' W 119°42'0 0.0
2014-Sep-18 23:28N 34°24' W 119°42'0 0.0
2014-Sep-18 22:31N 34°24' W 119°42'0 0.0
2014-Sep-18 21:31N 34°24' W 119°42'0 0.0
2014-Sep-18 20:31N 34°24' W 119°42'0 0.0
2014-Sep-18 19:28N 34°24' W 119°42'1 1.6
2014-Sep-18 18:34N 34°23' W 119°42'1918.5
2014-Sep-18 17:34N 34°24' W 120°04'  

Dump ship's entire track history